Time;durP1;ratioP1;P1;durP2;ratioP2;P2;SDS_P1;SDS_P2;PMS_P1;PMS_P2;Temp;Humidity;BMP_temperature;BMP_pressure;BME280_temperature;BME280_humidity;BME280_pressure;Samples;Min_cycle;Max_cycle;Signal;HPM_P1;HPM_P2
2021/01/20 00:02:00;;;;;;;1.27;0.82;;;21.00;99.90;;;;;;5037118;28;20257;-42
2021/01/20 00:04:25;;;;;;;1.48;0.60;;;21.00;99.90;;;;;;5037345;28;20173;-42
2021/01/20 00:06:51;;;;;;;2.75;0.65;;;21.00;99.90;;;;;;5036566;28;20183;-43
2021/01/20 00:09:17;;;;;;;1.50;0.90;;;21.00;99.90;;;;;;5035470;28;20180;-43
2021/01/20 00:11:42;;;;;;;3.15;0.90;;;20.90;99.90;;;;;;5034245;28;20266;-44
2021/01/20 00:14:12;;;;;;;1.73;0.98;;;20.90;99.90;;;;;;5034531;28;20184;-43
2021/01/20 00:16:37;;;;;;;1.00;0.80;;;20.90;99.90;;;;;;5035758;28;20168;-43
2021/01/20 00:19:03;;;;;;;1.58;0.70;;;20.90;99.90;;;;;;5035935;28;20203;-43
2021/01/20 00:21:28;;;;;;;1.05;0.70;;;20.80;99.90;;;;;;5035399;28;20188;-43
2021/01/20 00:23:54;;;;;;;1.23;0.80;;;20.80;99.90;;;;;;5035337;28;20170;-43
2021/01/20 00:26:19;;;;;;;1.15;0.77;;;20.80;99.90;;;;;;5035580;28;20563;-44
2021/01/20 00:28:45;;;;;;;2.17;0.90;;;20.80;99.90;;;;;;5033959;28;20172;-42
2021/01/20 00:31:11;;;;;;;1.02;0.70;;;20.70;99.90;;;;;;5035043;28;20638;-44
2021/01/20 00:33:37;;;;;;;4.25;0.90;;;20.70;99.90;;;;;;5035313;28;20200;-43
2021/01/20 00:36:02;;;;;;;1.15;0.70;;;20.70;99.90;;;;;;5035384;28;20168;-44
2021/01/20 00:38:28;;;;;;;1.85;0.80;;;20.70;99.90;;;;;;5035227;28;20180;-43
2021/01/20 00:40:53;;;;;;;0.95;0.60;;;20.70;99.90;;;;;;5034775;28;20220;-44
2021/01/20 00:43:19;;;;;;;1.17;0.70;;;20.70;99.90;;;;;;5035072;28;20179;-43
2021/01/20 00:45:44;;;;;;;1.00;0.90;;;20.60;99.90;;;;;;5034927;28;20531;-43
2021/01/20 00:48:10;;;;;;;0.95;0.80;;;20.60;99.90;;;;;;5034808;28;20636;-44
2021/01/20 00:50:36;;;;;;;0.98;0.50;;;20.60;99.90;;;;;;5035043;28;20246;-43
2021/01/20 00:53:02;;;;;;;1.67;1.00;;;20.60;99.90;;;;;;5034793;28;20642;-44
2021/01/20 00:55:28;;;;;;;1.73;0.82;;;20.60;99.90;;;;;;5034749;28;20164;-42
2021/01/20 00:57:53;;;;;;;1.00;0.57;;;20.60;99.90;;;;;;5035183;28;20575;-42
2021/01/20 01:00:19;;;;;;;1.33;0.70;;;20.50;99.90;;;;;;5034352;28;20242;-42
2021/01/20 01:02:45;;;;;;;1.17;0.70;;;20.50;99.90;;;;;;5034511;28;20175;-43
2021/01/20 01:05:11;;;;;;;0.70;0.70;;;20.50;99.90;;;;;;5034827;28;20179;-42
2021/01/20 01:07:37;;;;;;;2.08;0.70;;;20.50;99.90;;;;;;5033176;28;20169;-41
2021/01/20 01:10:03;;;;;;;1.60;0.77;;;20.50;99.90;;;;;;5034442;28;20247;-42
2021/01/20 01:12:28;;;;;;;0.75;0.75;;;20.50;99.90;;;;;;5034302;28;20206;-43
2021/01/20 01:14:54;;;;;;;1.77;0.80;;;20.40;99.90;;;;;;5034949;28;20223;-43
2021/01/20 01:17:20;;;;;;;1.80;0.70;;;20.40;99.90;;;;;;5034322;28;20180;-43
2021/01/20 01:19:45;;;;;;;2.03;0.68;;;20.40;99.90;;;;;;5034486;28;20196;-43
2021/01/20 01:22:12;;;;;;;1.52;0.77;;;20.40;99.90;;;;;;5033805;28;20258;-43
2021/01/20 01:24:39;;;;;;;1.02;0.75;;;20.40;99.90;;;;;;5034419;28;20240;-43
2021/01/20 01:27:04;;;;;;;0.80;0.57;;;20.40;99.90;;;;;;5034104;28;20215;-43
2021/01/20 01:29:30;;;;;;;1.35;0.60;;;20.40;99.90;;;;;;5034140;28;20215;-43
2021/01/20 01:31:56;;;;;;;1.13;0.60;;;20.40;99.90;;;;;;5033991;28;20192;-43
2021/01/20 01:34:22;;;;;;;1.00;0.55;;;20.30;99.90;;;;;;5034056;28;20172;-43
2021/01/20 01:36:48;;;;;;;0.93;0.68;;;20.30;99.90;;;;;;5034020;28;20172;-43
2021/01/20 01:39:14;;;;;;;0.75;0.63;;;20.30;99.90;;;;;;5033905;28;20222;-43
2021/01/20 01:41:40;;;;;;;0.80;0.52;;;20.30;99.90;;;;;;5033430;28;20207;-43
2021/01/20 01:44:06;;;;;;;0.57;0.50;;;20.30;99.90;;;;;;5034070;28;20184;-43
2021/01/20 01:46:32;;;;;;;0.82;0.60;;;20.30;99.90;;;;;;5033863;28;20631;-43
2021/01/20 01:48:58;;;;;;;2.05;0.63;;;20.30;99.90;;;;;;5034630;28;20208;-43
2021/01/20 01:51:24;;;;;;;1.40;0.60;;;20.30;99.90;;;;;;5033707;28;20196;-43
2021/01/20 01:53:51;;;;;;;1.75;0.60;;;20.20;99.90;;;;;;5033677;28;20180;-42
2021/01/20 01:56:17;;;;;;;1.35;0.60;;;20.30;99.90;;;;;;5034290;28;20535;-43
2021/01/20 01:58:44;;;;;;;0.55;0.50;;;20.20;99.90;;;;;;5033465;28;20200;-44
2021/01/20 02:01:09;;;;;;;0.85;0.60;;;20.20;99.90;;;;;;5033336;28;20287;-43
2021/01/20 02:03:35;;;;;;;2.42;0.80;;;20.30;99.90;;;;;;5033497;28;20259;-43
2021/01/20 02:06:01;;;;;;;2.15;0.40;;;20.20;99.90;;;;;;5033780;28;20160;-43
2021/01/20 02:08:27;;;;;;;0.47;0.47;;;20.20;99.90;;;;;;5033562;28;20584;-43
2021/01/20 02:10:57;;;;;;;0.75;0.52;;;20.20;99.90;;;;;;5033649;28;20610;-43
2021/01/20 02:13:33;;;;;;;0.82;0.60;;;20.20;99.90;;;;;;5033392;28;20172;-43
2021/01/20 02:16:04;;;;;;;0.50;0.40;;;20.20;99.90;;;;;;5033903;28;20751;-43
2021/01/20 02:18:32;;;;;;;0.90;0.70;;;20.20;99.90;;;;;;5033377;28;20160;-43
2021/01/20 02:21:22;;;;;;;1.00;0.60;;;20.10;99.90;;;;;;5033258;28;20199;-45
2021/01/20 02:23:49;;;;;;;1.13;0.60;;;20.10;99.90;;;;;;5033629;28;20679;-45
2021/01/20 02:26:48;;;;;;;0.77;0.50;;;20.10;99.90;;;;;;5033426;28;20222;-45
2021/01/20 02:29:44;;;;;;;0.98;0.63;;;20.10;99.90;;;;;;5022653;28;20186;-45
2021/01/20 02:32:11;;;;;;;0.65;0.57;;;20.10;99.90;;;;;;5031313;28;20196;-44
2021/01/20 02:34:38;;;;;;;1.45;0.63;;;20.10;99.90;;;;;;5033284;28;20650;-45
2021/01/20 02:37:05;;;;;;;0.50;0.40;;;20.10;99.90;;;;;;5033870;28;20164;-43
2021/01/20 02:39:32;;;;;;;0.75;0.70;;;20.10;99.90;;;;;;5033449;28;20200;-44
2021/01/20 02:42:05;;;;;;;2.55;0.65;;;20.10;99.90;;;;;;5032964;28;20204;-44
2021/01/20 02:44:35;;;;;;;1.10;0.60;;;20.10;99.90;;;;;;5033127;28;20164;-44
2021/01/20 02:47:01;;;;;;;0.73;0.55;;;20.10;99.90;;;;;;5033427;28;20186;-44
2021/01/20 02:49:28;;;;;;;0.55;0.50;;;20.10;99.90;;;;;;5033381;28;20267;-44
2021/01/20 02:52:26;;;;;;;2.17;0.50;;;20.10;99.90;;;;;;5032698;28;20219;-45
2021/01/20 02:54:54;;;;;;;0.52;0.50;;;20.00;99.90;;;;;;5033264;28;20595;-45
2021/01/20 02:57:20;;;;;;;0.73;0.70;;;20.10;99.90;;;;;;5033392;28;20164;-45
2021/01/20 02:59:46;;;;;;;0.75;0.60;;;20.00;99.90;;;;;;5033238;28;20671;-44
2021/01/20 03:02:16;;;;;;;0.70;0.50;;;20.00;99.90;;;;;;5032967;28;20282;-44
2021/01/20 03:04:44;;;;;;;0.65;0.50;;;20.00;99.90;;;;;;5033305;28;20702;-45
2021/01/20 03:07:12;;;;;;;1.65;0.73;;;20.00;99.90;;;;;;5033313;28;20222;-46
2021/01/20 03:09:38;;;;;;;0.60;0.52;;;20.00;99.90;;;;;;5033004;28;20188;-45
2021/01/20 03:12:04;;;;;;;1.55;0.65;;;19.90;99.90;;;;;;5032850;28;20204;-43
2021/01/20 03:14:32;;;;;;;0.75;0.50;;;20.00;99.90;;;;;;5034043;28;20208;-43
2021/01/20 03:16:57;;;;;;;0.82;0.50;;;20.00;99.90;;;;;;5034578;28;20184;-42
2021/01/20 03:19:23;;;;;;;2.05;0.70;;;20.00;99.90;;;;;;5033293;28;20249;-44
2021/01/20 03:21:48;;;;;;;1.00;0.60;;;20.00;99.90;;;;;;5032879;28;20279;-44
2021/01/20 03:24:14;;;;;;;0.50;0.43;;;20.00;99.90;;;;;;5032905;28;20268;-44
2021/01/20 03:26:39;;;;;;;0.80;0.60;;;19.90;99.90;;;;;;5034233;28;20161;-44
2021/01/20 03:29:05;;;;;;;1.58;0.50;;;19.90;99.90;;;;;;5036313;28;20184;-44
2021/01/20 03:31:30;;;;;;;0.98;0.50;;;20.00;99.90;;;;;;5036303;28;20199;-44
2021/01/20 03:33:56;;;;;;;1.35;0.63;;;19.90;99.90;;;;;;5036140;28;20187;-44
2021/01/20 03:36:22;;;;;;;0.90;0.50;;;19.90;99.90;;;;;;5036457;28;20266;-43
2021/01/20 03:38:47;;;;;;;1.27;0.70;;;19.90;99.90;;;;;;5036182;28;20301;-44
2021/01/20 03:41:13;;;;;;;0.90;0.55;;;19.90;99.90;;;;;;5036016;28;20277;-44
2021/01/20 03:43:38;;;;;;;0.93;0.60;;;19.90;99.90;;;;;;5036076;28;20571;-44
2021/01/20 03:46:04;;;;;;;0.68;0.52;;;19.90;99.90;;;;;;5036337;28;20168;-44
2021/01/20 03:48:29;;;;;;;0.50;0.50;;;19.90;99.90;;;;;;5035983;28;20161;-44
2021/01/20 03:50:55;;;;;;;0.98;0.63;;;19.90;99.90;;;;;;5036085;28;20216;-44
2021/01/20 03:53:20;;;;;;;0.73;0.65;;;19.90;99.90;;;;;;5035944;28;20165;-44
2021/01/20 03:55:46;;;;;;;0.55;0.45;;;19.90;99.90;;;;;;5036155;28;20636;-44
2021/01/20 03:58:13;;;;;;;0.70;0.60;;;19.90;99.90;;;;;;5035890;28;20164;-44
2021/01/20 04:00:39;;;;;;;0.88;0.50;;;19.90;99.90;;;;;;5035249;28;20203;-44
2021/01/20 04:03:04;;;;;;;0.57;0.50;;;19.90;99.90;;;;;;5035979;28;20188;-44
2021/01/20 04:05:30;;;;;;;0.63;0.60;;;19.90;99.90;;;;;;5035744;28;20524;-44
2021/01/20 04:07:55;;;;;;;0.50;0.40;;;19.90;99.90;;;;;;5035949;28;20168;-44
2021/01/20 04:10:21;;;;;;;0.65;0.60;;;19.90;99.90;;;;;;5035634;28;20220;-44
2021/01/20 04:12:47;;;;;;;0.60;0.52;;;19.90;99.90;;;;;;5036096;28;20173;-43
2021/01/20 04:15:12;;;;;;;0.47;0.40;;;19.80;99.90;;;;;;5035651;28;20262;-43
2021/01/20 04:17:38;;;;;;;0.93;0.60;;;19.80;99.90;;;;;;5035703;28;20310;-43
2021/01/20 04:20:05;;;;;;;1.02;0.70;;;19.80;99.90;;;;;;5031739;28;20231;-42
2021/01/20 04:22:31;;;;;;;0.98;0.65;;;19.80;99.90;;;;;;5035384;28;20658;-44
2021/01/20 04:24:56;;;;;;;1.27;0.60;;;19.80;99.90;;;;;;5035615;28;20259;-44
2021/01/20 04:27:22;;;;;;;0.98;0.63;;;19.70;99.90;;;;;;5031494;28;20169;-44
2021/01/20 04:29:47;;;;;;;1.27;0.50;;;19.70;99.90;;;;;;5017880;28;20319;-44
2021/01/20 04:32:13;;;;;;;0.73;0.60;;;19.70;99.90;;;;;;5020486;28;20295;-44
2021/01/20 04:34:38;;;;;;;0.63;0.52;;;19.70;99.90;;;;;;5019031;28;20181;-44
2021/01/20 04:37:04;;;;;;;0.90;0.57;;;19.70;99.90;;;;;;5015592;28;20184;-45
2021/01/20 04:39:29;;;;;;;1.23;0.60;;;19.70;99.90;;;;;;5026101;28;20207;-44
2021/01/20 04:41:55;;;;;;;0.57;0.50;;;19.70;99.90;;;;;;5020057;28;20208;-45
2021/01/20 04:44:21;;;;;;;0.52;0.52;;;19.70;99.90;;;;;;5025063;28;20176;-44
2021/01/20 04:46:47;;;;;;;0.60;0.47;;;19.70;99.90;;;;;;5035004;28;20175;-44
2021/01/20 04:49:17;;;;;;;0.52;0.40;;;19.70;99.90;;;;;;5018666;28;20181;-44
2021/01/20 04:51:44;;;;;;;0.98;0.55;;;19.70;99.90;;;;;;5018990;28;20245;-44
2021/01/20 04:54:11;;;;;;;1.50;0.55;;;19.70;99.90;;;;;;5035069;28;20175;-44
2021/01/20 04:56:38;;;;;;;0.40;0.35;;;19.70;99.90;;;;;;5028705;28;20184;-44
2021/01/20 04:59:04;;;;;;;0.68;0.52;;;19.70;99.90;;;;;;5034572;28;20663;-44
2021/01/20 05:01:31;;;;;;;0.85;0.57;;;19.70;99.90;;;;;;5028419;28;20204;-44
2021/01/20 05:03:58;;;;;;;0.50;0.40;;;19.80;99.90;;;;;;5015102;28;20536;-44
2021/01/20 05:06:24;;;;;;;1.13;0.57;;;19.80;99.90;;;;;;5015088;28;20252;-44
2021/01/20 05:08:49;;;;;;;0.40;0.40;;;19.80;99.90;;;;;;5015043;28;20296;-44
2021/01/20 05:11:15;;;;;;;0.85;0.50;;;19.80;99.90;;;;;;5015182;28;20242;-44
2021/01/20 05:13:42;;;;;;;0.85;0.50;;;19.80;99.90;;;;;;5015621;28;20568;-44
2021/01/20 05:16:07;;;;;;;0.88;0.50;;;19.80;99.90;;;;;;5014751;28;20196;-44
2021/01/20 05:18:47;;;;;;;0.63;0.50;;;19.90;99.90;;;;;;5032206;28;20278;-44
2021/01/20 05:21:17;;;;;;;0.77;0.60;;;19.90;99.90;;;;;;5034545;28;20226;-44
2021/01/20 05:23:42;;;;;;;0.82;0.70;;;19.90;99.90;;;;;;5034627;28;20505;-44
2021/01/20 05:26:08;;;;;;;0.73;0.50;;;19.90;99.90;;;;;;5034813;28;20160;-44
2021/01/20 05:28:35;;;;;;;0.52;0.50;;;19.90;99.90;;;;;;5020732;28;20644;-45
2021/01/20 05:31:02;;;;;;;0.88;0.70;;;19.90;99.90;;;;;;5028206;28;20203;-45
2021/01/20 05:33:37;;;;;;;0.70;0.50;;;19.90;99.90;;;;;;5034327;28;20168;-45
2021/01/20 05:36:08;;;;;;;0.68;0.57;;;19.90;99.90;;;;;;5034081;28;20693;-45
2021/01/20 05:38:35;;;;;;;0.70;0.52;;;19.90;99.90;;;;;;5024120;28;20187;-45
2021/01/20 05:41:21;;;;;;;1.33;0.60;;;20.00;99.90;;;;;;5040665;22;20586;-37
2021/01/20 05:43:54;;;;;;;0.90;0.60;;;20.00;99.90;;;;;;5018684;28;20532;-37
2021/01/20 05:46:33;;;;;;;1.10;0.50;;;20.00;99.90;;;;;;5014401;28;20149;-37
2021/01/20 05:48:59;;;;;;;0.63;0.43;;;20.00;99.90;;;;;;5023883;28;20186;-37
2021/01/20 05:51:25;;;;;;;1.48;0.40;;;20.00;99.90;;;;;;5032973;28;20274;-37
2021/01/20 05:53:56;;;;;;;0.50;0.45;;;20.00;99.90;;;;;;5029075;28;20177;-37
2021/01/20 05:56:29;;;;;;;0.75;0.45;;;20.00;99.90;;;;;;5024488;28;20200;-37
2021/01/20 05:58:56;;;;;;;0.60;0.40;;;20.00;99.90;;;;;;5016048;28;20212;-35
2021/01/20 06:01:22;;;;;;;0.85;0.45;;;20.00;99.90;;;;;;5018046;28;20199;-35
2021/01/20 06:03:48;;;;;;;1.40;0.50;;;20.00;99.90;;;;;;5033587;28;20161;-35
2021/01/20 06:06:16;;;;;;;0.95;0.60;;;20.00;99.90;;;;;;5033811;28;20198;-35
2021/01/20 06:08:42;;;;;;;1.15;0.70;;;20.00;99.90;;;;;;5028777;28;20165;-35
2021/01/20 06:11:07;;;;;;;0.63;0.63;;;20.00;99.90;;;;;;5013717;28;20541;-35
2021/01/20 06:13:34;;;;;;;1.15;0.63;;;20.00;99.90;;;;;;5013979;28;20176;-35
2021/01/20 06:16:16;;;;;;;1.33;0.40;;;20.00;99.90;;;;;;5014712;28;20202;-35
2021/01/20 06:18:54;;;;;;;1.08;0.60;;;20.00;99.90;;;;;;5013899;28;20153;-35
2021/01/20 06:21:20;;;;;;;0.95;0.50;;;20.00;99.90;;;;;;5031918;28;20198;-35
2021/01/20 06:23:56;;;;;;;0.95;0.60;;;20.00;99.90;;;;;;5028363;28;20164;-35
2021/01/20 06:26:25;;;;;;;1.08;0.65;;;20.00;99.90;;;;;;5013626;28;20490;-35
2021/01/20 06:28:59;;;;;;;0.73;0.47;;;20.00;99.90;;;;;;5013825;28;20597;-35
2021/01/20 06:31:27;;;;;;;0.50;0.50;;;20.00;99.90;;;;;;5013798;28;20192;-35
2021/01/20 06:33:53;;;;;;;1.70;0.47;;;20.00;99.90;;;;;;5023136;28;20531;-35
2021/01/20 06:36:32;;;;;;;0.95;0.43;;;19.90;99.90;;;;;;5033185;28;20266;-35
2021/01/20 06:38:58;;;;;;;0.43;0.38;;;19.90;99.90;;;;;;5013357;28;20571;-35
2021/01/20 06:41:40;;;;;;;0.73;0.70;;;19.90;99.90;;;;;;5024059;28;20261;-35
2021/01/20 06:44:08;;;;;;;0.73;0.60;;;19.90;99.90;;;;;;5017419;28;20264;-35
2021/01/20 06:46:34;;;;;;;1.13;0.50;;;20.00;99.90;;;;;;5013706;28;20177;-35
2021/01/20 06:48:59;;;;;;;0.70;0.60;;;19.90;99.90;;;;;;5013419;28;20275;-35
2021/01/20 06:51:26;;;;;;;0.70;0.60;;;19.90;99.90;;;;;;5013572;28;20623;-35
2021/01/20 06:54:06;;;;;;;0.68;0.60;;;19.90;99.90;;;;;;5013320;28;20169;-35
2021/01/20 06:56:45;;;;;;;0.77;0.70;;;19.90;99.90;;;;;;5014168;28;20177;-35
2021/01/20 06:59:24;;;;;;;0.85;0.50;;;19.90;99.90;;;;;;5013812;28;20228;-35
2021/01/20 07:02:01;;;;;;;0.47;0.45;;;19.90;99.90;;;;;;5027031;28;20250;-35
2021/01/20 07:04:49;;;;;;;0.52;0.50;;;19.80;99.90;;;;;;5036802;28;20164;-35
2021/01/20 07:07:54;;;;;;;0.50;0.50;;;19.80;99.90;;;;;;5024181;28;20179;-35
2021/01/20 07:10:21;;;;;;;0.70;0.40;;;19.80;99.90;;;;;;5036979;28;20198;-35
2021/01/20 07:13:09;;;;;;;0.50;0.40;;;19.80;99.90;;;;;;5028738;28;20189;-35
2021/01/20 07:15:38;;;;;;;0.40;0.40;;;19.80;99.90;;;;;;5016894;28;20164;-35
2021/01/20 07:18:08;;;;;;;0.60;0.40;;;19.70;99.90;;;;;;5017582;28;20649;-35
2021/01/20 07:20:34;;;;;;;0.40;0.40;;;19.70;99.90;;;;;;5025558;28;20223;-35
2021/01/20 07:23:00;;;;;;;0.60;0.50;;;19.70;99.90;;;;;;5036595;28;20199;-38
2021/01/20 07:25:27;;;;;;;0.90;0.63;;;19.70;99.90;;;;;;5036414;28;20754;-48
2021/01/20 07:27:53;;;;;;;0.50;0.50;;;19.70;99.90;;;;;;5029261;28;20568;-48
2021/01/20 07:30:19;;;;;;;0.88;0.60;;;19.70;99.90;;;;;;5016549;28;20177;-48
2021/01/20 07:32:45;;;;;;;1.25;0.68;;;19.80;99.90;;;;;;5016493;28;20184;-52
2021/01/20 07:35:37;;;;;;;0.88;0.68;;;19.80;99.90;;;;;;5016884;28;20261;-51
2021/01/20 07:38:04;;;;;;;0.50;0.50;;;19.90;99.90;;;;;;5015996;28;20206;-50
2021/01/20 07:40:37;;;;;;;1.15;0.70;;;20.00;99.90;;;;;;5035336;28;20208;-47
2021/01/20 07:43:04;;;;;;;0.95;0.50;;;20.00;99.90;;;;;;5022434;28;20509;-47
2021/01/20 07:45:31;;;;;;;1.00;0.57;;;20.00;99.90;;;;;;5036153;28;20612;-47
2021/01/20 07:47:57;;;;;;;1.08;0.60;;;20.10;99.90;;;;;;5035608;28;20255;-50
2021/01/20 07:50:55;;;;;;;0.77;0.55;;;20.00;99.90;;;;;;5035510;28;20244;-55
2021/01/20 07:53:21;;;;;;;1.48;0.60;;;20.10;99.90;;;;;;4994099;28;20540;-54
2021/01/20 07:55:53;;;;;;;0.98;0.80;;;20.10;99.90;;;;;;5020423;28;20176;-58
2021/01/20 07:58:25;;;;;;;0.80;0.80;;;20.10;99.90;;;;;;5035675;28;20180;-55
2021/01/20 08:00:50;;;;;;;1.10;0.70;;;20.20;99.90;;;;;;5016502;28;20240;-56
2021/01/20 08:03:30;;;;;;;0.60;0.60;;;20.10;99.90;;;;;;5016274;28;20196;-54
2021/01/20 08:05:55;;;;;;;2.10;0.80;;;20.10;99.90;;;;;;5016221;28;20165;-55
2021/01/20 08:08:21;;;;;;;1.42;0.70;;;20.10;99.90;;;;;;5015889;28;20165;-53
2021/01/20 08:10:46;;;;;;;0.73;0.50;;;20.10;99.90;;;;;;5015797;28;20204;-49
2021/01/20 08:13:15;;;;;;;1.15;0.63;;;20.20;99.90;;;;;;5023150;28;20200;-54
2021/01/20 08:15:42;;;;;;;0.93;0.43;;;20.20;99.90;;;;;;5016000;28;20171;-58
2021/01/20 08:18:10;;;;;;;2.08;0.77;;;20.30;99.90;;;;;;5017708;28;20568;-57
2021/01/20 08:20:36;;;;;;;2.90;0.68;;;20.30;99.90;;;;;;5015918;28;20209;-64
2021/01/20 08:23:04;;;;;;;1.88;0.60;;;20.30;99.90;;;;;;5030325;28;20177;-56
2021/01/20 08:25:30;;;;;;;1.30;0.90;;;20.40;99.90;;;;;;5035376;28;20184;-54
2021/01/20 08:28:07;;;;;;;1.80;0.70;;;20.40;99.90;;;;;;5027831;28;20200;-57
2021/01/20 08:30:34;;;;;;;0.70;0.60;;;20.40;99.90;;;;;;5015464;28;20211;-57
2021/01/20 08:33:01;;;;;;;1.75;0.50;;;20.40;99.90;;;;;;5015708;28;20287;-53
2021/01/20 08:35:34;;;;;;;1.58;0.77;;;20.40;99.90;;;;;;5015932;28;20173;-53
2021/01/20 08:38:01;;;;;;;0.73;0.70;;;20.40;99.90;;;;;;5021058;28;20644;-51
2021/01/20 08:40:27;;;;;;;2.10;0.70;;;20.40;99.90;;;;;;5034991;28;20219;-51
2021/01/20 08:42:52;;;;;;;3.35;0.77;;;20.40;99.90;;;;;;5035332;28;20195;-52
2021/01/20 08:45:21;;;;;;;1.75;0.70;;;20.40;99.90;;;;;;5024325;28;20633;-53
2021/01/20 08:48:09;;;;;;;3.33;0.95;;;20.40;99.90;;;;;;5015159;28;20223;-51
2021/01/20 08:50:40;;;;;;;2.05;0.70;;;20.40;99.90;;;;;;5015385;28;20215;-51
2021/01/20 08:53:09;;;;;;;2.15;0.80;;;20.40;99.90;;;;;;5032056;28;20176;-52
2021/01/20 08:55:40;;;;;;;1.20;0.80;;;20.40;99.90;;;;;;5035014;28;20227;-51
2021/01/20 08:58:31;;;;;;;1.77;0.60;;;20.40;99.90;;;;;;5025174;28;20180;-51
2021/01/20 09:00:58;;;;;;;1.00;0.75;;;20.30;99.90;;;;;;5015098;28;20200;-55
2021/01/20 09:03:24;;;;;;;0.70;0.60;;;20.40;99.90;;;;;;5015155;28;20173;-56
2021/01/20 09:05:52;;;;;;;1.48;0.50;;;20.30;99.90;;;;;;5015074;28;20248;-52
2021/01/20 09:08:19;;;;;;;0.60;0.60;;;20.30;99.90;;;;;;5029017;28;20176;-50
2021/01/20 09:10:46;;;;;;;1.45;0.60;;;20.30;99.90;;;;;;5032904;28;20200;-50
2021/01/20 09:13:13;;;;;;;2.10;0.50;;;20.20;99.90;;;;;;5014954;28;20173;-49
2021/01/20 09:15:39;;;;;;;0.73;0.50;;;20.20;99.90;;;;;;5014890;28;20184;-47
2021/01/20 09:18:06;;;;;;;1.63;0.60;;;20.20;99.90;;;;;;5014663;28;20172;-58
2021/01/20 09:20:33;;;;;;;1.95;0.60;;;20.20;99.90;;;;;;5014651;28;20204;-51
2021/01/20 09:22:58;;;;;;;0.63;0.50;;;20.10;99.90;;;;;;5020547;28;20643;-61
2021/01/20 09:25:24;;;;;;;1.52;0.80;;;20.10;99.90;;;;;;5033636;28;20175;-60
2021/01/20 09:27:49;;;;;;;0.93;0.60;;;20.10;99.90;;;;;;5034161;28;20199;-61
2021/01/20 09:30:15;;;;;;;1.60;0.88;;;20.10;99.90;;;;;;5034118;28;20645;-60
2021/01/20 09:32:41;;;;;;;1.00;0.68;;;20.10;99.90;;;;;;5022869;28;20188;-58
2021/01/20 09:35:11;;;;;;;2.05;0.63;;;20.10;99.90;;;;;;5014911;28;20172;-59
2021/01/20 09:37:38;;;;;;;1.55;0.50;;;20.10;99.90;;;;;;5014923;28;20169;-57
2021/01/20 09:40:07;;;;;;;2.15;0.85;;;20.00;99.90;;;;;;5022423;28;20199;-58
2021/01/20 09:42:34;;;;;;;2.25;0.50;;;20.00;99.90;;;;;;5027468;28;20200;-60
2021/01/20 09:45:00;;;;;;;1.90;0.73;;;20.00;99.90;;;;;;5034223;28;20156;-60
2021/01/20 09:47:25;;;;;;;0.70;0.60;;;20.00;99.90;;;;;;5033854;28;20168;-59
2021/01/20 09:49:51;;;;;;;1.00;0.50;;;20.00;99.90;;;;;;5026201;28;20552;-59
2021/01/20 09:52:18;;;;;;;0.40;0.40;;;20.00;99.90;;;;;;5030465;28;20884;-58
2021/01/20 09:54:44;;;;;;;0.60;0.52;;;20.00;99.90;;;;;;5033847;28;20209;-57
2021/01/20 09:57:09;;;;;;;0.75;0.63;;;20.00;99.90;;;;;;5033437;28;20635;-57
2021/01/20 09:59:35;;;;;;;0.85;0.43;;;19.90;99.90;;;;;;5033228;28;20208;-58
2021/01/20 10:02:00;;;;;;;2.13;0.52;;;19.90;99.90;;;;;;5029470;28;20192;-58
2021/01/20 10:04:26;;;;;;;0.80;0.55;;;19.90;99.90;;;;;;5033592;28;20628;-55
2021/01/20 10:06:53;;;;;;;1.30;0.60;;;19.90;99.90;;;;;;5034135;28;20176;-57
2021/01/20 10:09:19;;;;;;;2.05;0.60;;;19.90;99.90;;;;;;5033134;28;20262;-56
2021/01/20 10:11:45;;;;;;;2.55;0.88;;;19.90;99.90;;;;;;5033235;28;20219;-55
2021/01/20 10:14:11;;;;;;;1.70;0.63;;;19.90;99.90;;;;;;5033738;28;20176;-57
2021/01/20 10:16:36;;;;;;;0.85;0.57;;;19.90;99.90;;;;;;5033768;28;20176;-57
2021/01/20 10:19:02;;;;;;;0.60;0.47;;;19.90;99.90;;;;;;5033429;28;20258;-56
2021/01/20 10:21:27;;;;;;;0.82;0.52;;;19.90;99.90;;;;;;5033392;28;20184;-57
2021/01/20 10:23:53;;;;;;;2.17;0.60;;;19.90;99.90;;;;;;5032411;28;20172;-54
2021/01/20 10:26:24;;;;;;;0.90;0.60;;;19.90;99.90;;;;;;5033403;28;20632;-52
2021/01/20 10:28:49;;;;;;;0.93;0.65;;;19.80;99.90;;;;;;5033290;28;20203;-57
2021/01/20 10:31:15;;;;;;;0.85;0.60;;;19.80;99.90;;;;;;5033312;28;20192;-51
2021/01/20 10:33:42;;;;;;;0.52;0.40;;;19.80;99.90;;;;;;5032876;28;20176;-53
